sensor_id;sensor_type;location;lat;lon;timestamp;temperature;humidity
20650;DHT22;10484;48.736;9.332;2023-07-20T00:00:45;23.10;1.00
20650;DHT22;10484;48.736;9.332;2023-07-20T00:03:13;23.10;1.00
20650;DHT22;10484;48.736;9.332;2023-07-20T00:05:47;23.00;1.00
20650;DHT22;10484;48.736;9.332;2023-07-20T00:08:13;23.00;1.00
20650;DHT22;10484;48.736;9.332;2023-07-20T00:10:40;23.00;1.00
20650;DHT22;10484;48.736;9.332;2023-07-20T00:13:05;22.90;1.00
20650;DHT22;10484;48.736;9.332;2023-07-20T00:15:31;22.90;1.00
20650;DHT22;10484;48.736;9.332;2023-07-20T00:17:57;22.80;1.00
20650;DHT22;10484;48.736;9.332;2023-07-20T00:20:23;22.80;1.00
20650;DHT22;10484;48.736;9.332;2023-07-20T00:22:49;22.70;1.00
20650;DHT22;10484;48.736;9.332;2023-07-20T00:25:16;22.70;1.00
20650;DHT22;10484;48.736;9.332;2023-07-20T00:27:42;22.70;1.00
20650;DHT22;10484;48.736;9.332;2023-07-20T00:30:08;22.60;1.00
20650;DHT22;10484;48.736;9.332;2023-07-20T00:32:33;22.60;1.00
20650;DHT22;10484;48.736;9.332;2023-07-20T00:34:59;22.50;1.00
20650;DHT22;10484;48.736;9.332;2023-07-20T00:37:25;22.50;1.00
20650;DHT22;10484;48.736;9.332;2023-07-20T00:39:51;22.40;1.00
20650;DHT22;10484;48.736;9.332;2023-07-20T00:42:16;22.30;1.00
20650;DHT22;10484;48.736;9.332;2023-07-20T00:44:42;22.30;1.00
20650;DHT22;10484;48.736;9.332;2023-07-20T00:47:07;22.20;1.00
20650;DHT22;10484;48.736;9.332;2023-07-20T00:49:34;22.20;1.00
20650;DHT22;10484;48.736;9.332;2023-07-20T00:52:01;22.10;1.00
20650;DHT22;10484;48.736;9.332;2023-07-20T00:54:28;22.10;1.00
20650;DHT22;10484;48.736;9.332;2023-07-20T00:56:54;22.00;1.00
20650;DHT22;10484;48.736;9.332;2023-07-20T00:59:21;22.00;1.00
20650;DHT22;10484;48.736;9.332;2023-07-20T01:01:46;21.90;1.00
20650;DHT22;10484;48.736;9.332;2023-07-20T01:04:12;21.90;1.00
20650;DHT22;10484;48.736;9.332;2023-07-20T01:09:12;21.80;1.00
20650;DHT22;10484;48.736;9.332;2023-07-20T01:14:08;21.70;1.00
20650;DHT22;10484;48.736;9.332;2023-07-20T01:16:34;21.60;1.00
20650;DHT22;10484;48.736;9.332;2023-07-20T01:19:00;21.60;1.00
20650;DHT22;10484;48.736;9.332;2023-07-20T01:21:42;21.50;1.00
20650;DHT22;10484;48.736;9.332;2023-07-20T01:30:02;21.40;1.00
20650;DHT22;10484;48.736;9.332;2023-07-20T01:32:31;21.30;1.00
20650;DHT22;10484;48.736;9.332;2023-07-20T01:34:56;21.30;1.00
20650;DHT22;10484;48.736;9.332;2023-07-20T01:37:24;21.20;1.00
20650;DHT22;10484;48.736;9.332;2023-07-20T01:39:54;21.20;1.00
20650;DHT22;10484;48.736;9.332;2023-07-20T01:42:23;21.20;1.00
20650;DHT22;10484;48.736;9.332;2023-07-20T01:44:53;21.20;1.00
20650;DHT22;10484;48.736;9.332;2023-07-20T01:47:19;21.10;1.00
20650;DHT22;10484;48.736;9.332;2023-07-20T01:49:45;21.10;1.00
20650;DHT22;10484;48.736;9.332;2023-07-20T01:52:10;21.10;1.00
20650;DHT22;10484;48.736;9.332;2023-07-20T01:54:36;21.00;1.00
20650;DHT22;10484;48.736;9.332;2023-07-20T01:57:01;21.00;1.00
20650;DHT22;10484;48.736;9.332;2023-07-20T01:59:27;20.90;1.00
20650;DHT22;10484;48.736;9.332;2023-07-20T02:01:53;20.90;1.00
20650;DHT22;10484;48.736;9.332;2023-07-20T02:04:18;20.90;1.00
20650;DHT22;10484;48.736;9.332;2023-07-20T02:06:44;20.80;1.00
20650;DHT22;10484;48.736;9.332;2023-07-20T02:09:09;20.80;1.00
20650;DHT22;10484;48.736;9.332;2023-07-20T02:11:35;20.80;1.00
20650;DHT22;10484;48.736;9.332;2023-07-20T02:14:00;20.80;1.00
20650;DHT22;10484;48.736;9.332;2023-07-20T02:16:26;20.70;1.00
20650;DHT22;10484;48.736;9.332;2023-07-20T02:18:53;20.70;1.00
20650;DHT22;10484;48.736;9.332;2023-07-20T02:21:18;20.60;1.00
20650;DHT22;10484;48.736;9.332;2023-07-20T02:23:44;20.60;1.00
20650;DHT22;10484;48.736;9.332;2023-07-20T02:26:09;20.50;1.00
20650;DHT22;10484;48.736;9.332;2023-07-20T02:28:35;20.40;1.00
20650;DHT22;10484;48.736;9.332;2023-07-20T02:31:00;20.40;1.00
20650;DHT22;10484;48.736;9.332;2023-07-20T02:33:26;20.40;1.00
20650;DHT22;10484;48.736;9.332;2023-07-20T02:35:52;20.30;1.00
20650;DHT22;10484;48.736;9.332;2023-07-20T02:38:18;20.30;1.00
20650;DHT22;10484;48.736;9.332;2023-07-20T02:40:43;20.20;1.00
20650;DHT22;10484;48.736;9.332;2023-07-20T02:43:09;20.20;1.00
20650;DHT22;10484;48.736;9.332;2023-07-20T02:45:35;20.10;1.00
20650;DHT22;10484;48.736;9.332;2023-07-20T02:48:05;20.00;1.00
20650;DHT22;10484;48.736;9.332;2023-07-20T02:50:33;19.90;1.00
20650;DHT22;10484;48.736;9.332;2023-07-20T02:53:00;19.90;1.00
20650;DHT22;10484;48.736;9.332;2023-07-20T02:55:25;19.80;1.00
20650;DHT22;10484;48.736;9.332;2023-07-20T02:57:51;19.80;1.00
20650;DHT22;10484;48.736;9.332;2023-07-20T03:00:16;19.80;1.00
20650;DHT22;10484;48.736;9.332;2023-07-20T03:02:45;19.80;1.00
20650;DHT22;10484;48.736;9.332;2023-07-20T03:05:15;19.80;1.00
20650;DHT22;10484;48.736;9.332;2023-07-20T03:07:42;19.70;1.00
20650;DHT22;10484;48.736;9.332;2023-07-20T03:10:09;19.70;1.00
20650;DHT22;10484;48.736;9.332;2023-07-20T03:12:35;19.70;1.00
20650;DHT22;10484;48.736;9.332;2023-07-20T03:15:04;19.60;1.00
20650;DHT22;10484;48.736;9.332;2023-07-20T03:17:30;19.60;1.00
20650;DHT22;10484;48.736;9.332;2023-07-20T03:19:55;19.50;1.00
20650;DHT22;10484;48.736;9.332;2023-07-20T03:22:21;19.50;1.00
20650;DHT22;10484;48.736;9.332;2023-07-20T03:24:47;19.50;1.00
20650;DHT22;10484;48.736;9.332;2023-07-20T03:27:13;19.50;1.00
20650;DHT22;10484;48.736;9.332;2023-07-20T03:29:38;19.50;1.00
20650;DHT22;10484;48.736;9.332;2023-07-20T03:32:05;19.50;1.00
20650;DHT22;10484;48.736;9.332;2023-07-20T03:34:31;19.40;1.00
20650;DHT22;10484;48.736;9.332;2023-07-20T03:36:56;19.40;1.00
20650;DHT22;10484;48.736;9.332;2023-07-20T03:39:22;19.40;1.00
20650;DHT22;10484;48.736;9.332;2023-07-20T03:41:48;19.30;1.00
20650;DHT22;10484;48.736;9.332;2023-07-20T03:44:13;19.30;1.00
20650;DHT22;10484;48.736;9.332;2023-07-20T03:46:39;19.30;1.00
20650;DHT22;10484;48.736;9.332;2023-07-20T03:49:05;19.30;1.00
20650;DHT22;10484;48.736;9.332;2023-07-20T03:51:31;19.20;1.00
20650;DHT22;10484;48.736;9.332;2023-07-20T03:53:57;19.20;1.00
20650;DHT22;10484;48.736;9.332;2023-07-20T03:56:23;19.10;1.00
20650;DHT22;10484;48.736;9.332;2023-07-20T03:58:49;19.20;1.00
20650;DHT22;10484;48.736;9.332;2023-07-20T04:01:15;19.10;1.00
20650;DHT22;10484;48.736;9.332;2023-07-20T04:03:42;19.10;1.00
20650;DHT22;10484;48.736;9.332;2023-07-20T04:06:08;19.10;1.00
20650;DHT22;10484;48.736;9.332;2023-07-20T04:08:34;19.00;1.00
20650;DHT22;10484;48.736;9.332;2023-07-20T04:11:01;19.00;1.00
20650;DHT22;10484;48.736;9.332;2023-07-20T04:13:27;19.00;1.00
20650;DHT22;10484;48.736;9.332;2023-07-20T04:15:53;19.00;1.00
20650;DHT22;10484;48.736;9.332;2023-07-20T04:18:19;18.90;1.00
20650;DHT22;10484;48.736;9.332;2023-07-20T04:20:45;18.80;1.00
20650;DHT22;10484;48.736;9.332;2023-07-20T04:23:10;18.80;1.00
20650;DHT22;10484;48.736;9.332;2023-07-20T04:25:38;18.80;1.00
20650;DHT22;10484;48.736;9.332;2023-07-20T04:28:07;18.80;1.00
20650;DHT22;10484;48.736;9.332;2023-07-20T04:30:36;18.70;1.00
20650;DHT22;10484;48.736;9.332;2023-07-20T04:33:03;18.70;1.00
20650;DHT22;10484;48.736;9.332;2023-07-20T04:38:16;18.70;1.00
20650;DHT22;10484;48.736;9.332;2023-07-20T04:40:44;18.70;1.00
20650;DHT22;10484;48.736;9.332;2023-07-20T04:43:09;18.70;1.00
20650;DHT22;10484;48.736;9.332;2023-07-20T04:45:35;18.60;1.00
20650;DHT22;10484;48.736;9.332;2023-07-20T04:48:00;18.60;1.00
20650;DHT22;10484;48.736;9.332;2023-07-20T04:50:26;18.50;1.00
20650;DHT22;10484;48.736;9.332;2023-07-20T04:52:52;18.40;1.00
20650;DHT22;10484;48.736;9.332;2023-07-20T04:55:18;18.30;1.00
20650;DHT22;10484;48.736;9.332;2023-07-20T04:57:44;18.40;1.00
20650;DHT22;10484;48.736;9.332;2023-07-20T05:00:10;18.40;1.00
20650;DHT22;10484;48.736;9.332;2023-07-20T05:02:37;18.40;1.00
20650;DHT22;10484;48.736;9.332;2023-07-20T05:05:03;18.40;1.00
20650;DHT22;10484;48.736;9.332;2023-07-20T05:07:31;18.40;1.00
20650;DHT22;10484;48.736;9.332;2023-07-20T05:09:57;18.40;1.00
20650;DHT22;10484;48.736;9.332;2023-07-20T05:12:23;18.40;1.00
20650;DHT22;10484;48.736;9.332;2023-07-20T05:14:48;18.40;1.00
20650;DHT22;10484;48.736;9.332;2023-07-20T05:17:14;18.50;1.00
20650;DHT22;10484;48.736;9.332;2023-07-20T05:19:39;18.50;1.00
20650;DHT22;10484;48.736;9.332;2023-07-20T05:22:05;18.50;1.00
20650;DHT22;10484;48.736;9.332;2023-07-20T05:24:31;18.50;1.00
20650;DHT22;10484;48.736;9.332;2023-07-20T05:26:58;18.50;1.00
20650;DHT22;10484;48.736;9.332;2023-07-20T05:29:24;18.50;1.00
20650;DHT22;10484;48.736;9.332;2023-07-20T05:31:49;18.50;1.00
20650;DHT22;10484;48.736;9.332;2023-07-20T05:34:15;18.50;1.00
20650;DHT22;10484;48.736;9.332;2023-07-20T05:36:40;18.50;1.00
20650;DHT22;10484;48.736;9.332;2023-07-20T05:39:06;18.50;1.00
20650;DHT22;10484;48.736;9.332;2023-07-20T05:41:32;18.60;1.00
20650;DHT22;10484;48.736;9.332;2023-07-20T05:43:57;18.60;1.00
20650;DHT22;10484;48.736;9.332;2023-07-20T05:46:23;18.60;1.00
20650;DHT22;10484;48.736;9.332;2023-07-20T05:48:49;18.70;1.00
20650;DHT22;10484;48.736;9.332;2023-07-20T05:51:15;18.70;1.00
20650;DHT22;10484;48.736;9.332;2023-07-20T05:53:41;18.70;1.00
20650;DHT22;10484;48.736;9.332;2023-07-20T05:56:07;18.80;1.00
20650;DHT22;10484;48.736;9.332;2023-07-20T05:58:36;18.80;1.00
20650;DHT22;10484;48.736;9.332;2023-07-20T06:01:03;18.80;1.00
20650;DHT22;10484;48.736;9.332;2023-07-20T06:03:28;18.80;1.00
20650;DHT22;10484;48.736;9.332;2023-07-20T06:06:01;18.90;1.00
20650;DHT22;10484;48.736;9.332;2023-07-20T06:08:31;18.90;1.00
20650;DHT22;10484;48.736;9.332;2023-07-20T06:10:57;18.90;1.00
20650;DHT22;10484;48.736;9.332;2023-07-20T06:13:22;18.90;1.00
20650;DHT22;10484;48.736;9.332;2023-07-20T06:15:49;18.90;1.00
20650;DHT22;10484;48.736;9.332;2023-07-20T06:18:15;18.90;1.00
20650;DHT22;10484;48.736;9.332;2023-07-20T06:20:40;19.00;1.00
20650;DHT22;10484;48.736;9.332;2023-07-20T06:23:06;19.00;1.00
20650;DHT22;10484;48.736;9.332;2023-07-20T06:25:32;19.00;1.00
20650;DHT22;10484;48.736;9.332;2023-07-20T06:27:57;19.10;1.00
20650;DHT22;10484;48.736;9.332;2023-07-20T06:30:23;19.10;1.00
20650;DHT22;10484;48.736;9.332;2023-07-20T06:32:49;19.10;1.00
20650;DHT22;10484;48.736;9.332;2023-07-20T06:35:15;19.10;1.00
20650;DHT22;10484;48.736;9.332;2023-07-20T06:37:41;19.10;1.00
20650;DHT22;10484;48.736;9.332;2023-07-20T06:40:07;19.10;1.00
20650;DHT22;10484;48.736;9.332;2023-07-20T06:42:34;19.20;1.00
20650;DHT22;10484;48.736;9.332;2023-07-20T06:45:00;19.20;1.00
20650;DHT22;10484;48.736;9.332;2023-07-20T06:47:26;19.20;1.00
20650;DHT22;10484;48.736;9.332;2023-07-20T06:49:52;19.30;1.00
20650;DHT22;10484;48.736;9.332;2023-07-20T06:52:17;19.30;1.00
20650;DHT22;10484;48.736;9.332;2023-07-20T06:54:43;19.30;1.00
20650;DHT22;10484;48.736;9.332;2023-07-20T06:57:09;19.30;1.00
20650;DHT22;10484;48.736;9.332;2023-07-20T06:59:34;19.30;1.00
20650;DHT22;10484;48.736;9.332;2023-07-20T07:02:00;19.40;1.00
20650;DHT22;10484;48.736;9.332;2023-07-20T07:04:25;19.40;1.00
20650;DHT22;10484;48.736;9.332;2023-07-20T07:06:51;19.50;1.00
20650;DHT22;10484;48.736;9.332;2023-07-20T07:09:17;19.50;1.00
20650;DHT22;10484;48.736;9.332;2023-07-20T07:11:43;19.50;1.00
20650;DHT22;10484;48.736;9.332;2023-07-20T07:14:10;19.60;1.00
20650;DHT22;10484;48.736;9.332;2023-07-20T07:16:35;19.60;1.00
20650;DHT22;10484;48.736;9.332;2023-07-20T07:19:01;19.60;1.00
20650;DHT22;10484;48.736;9.332;2023-07-20T07:21:26;19.70;1.00
20650;DHT22;10484;48.736;9.332;2023-07-20T07:23:52;19.70;1.00
20650;DHT22;10484;48.736;9.332;2023-07-20T07:26:23;19.70;1.00
20650;DHT22;10484;48.736;9.332;2023-07-20T07:28:49;19.80;1.00
20650;DHT22;10484;48.736;9.332;2023-07-20T07:31:15;19.80;1.00
20650;DHT22;10484;48.736;9.332;2023-07-20T07:33:40;19.80;1.00
20650;DHT22;10484;48.736;9.332;2023-07-20T07:36:06;19.80;1.00
20650;DHT22;10484;48.736;9.332;2023-07-20T07:38:32;19.80;1.00
20650;DHT22;10484;48.736;9.332;2023-07-20T07:40:58;19.90;1.00
20650;DHT22;10484;48.736;9.332;2023-07-20T07:43:24;19.90;1.00
20650;DHT22;10484;48.736;9.332;2023-07-20T07:45:49;19.90;1.00
20650;DHT22;10484;48.736;9.332;2023-07-20T07:48:15;20.00;1.00
20650;DHT22;10484;48.736;9.332;2023-07-20T07:50:40;20.00;1.00
20650;DHT22;10484;48.736;9.332;2023-07-20T07:53:08;20.00;1.00
20650;DHT22;10484;48.736;9.332;2023-07-20T07:55:35;20.00;1.00
20650;DHT22;10484;48.736;9.332;2023-07-20T07:58:00;20.10;1.00
20650;DHT22;10484;48.736;9.332;2023-07-20T08:00:26;20.20;1.00
20650;DHT22;10484;48.736;9.332;2023-07-20T08:02:52;20.30;1.00
20650;DHT22;10484;48.736;9.332;2023-07-20T08:05:17;20.30;1.00
20650;DHT22;10484;48.736;9.332;2023-07-20T08:07:43;20.30;1.00
20650;DHT22;10484;48.736;9.332;2023-07-20T08:10:09;20.40;1.00
20650;DHT22;10484;48.736;9.332;2023-07-20T08:12:35;20.40;1.00
20650;DHT22;10484;48.736;9.332;2023-07-20T08:15:00;20.50;1.00
20650;DHT22;10484;48.736;9.332;2023-07-20T08:17:26;20.60;1.00
20650;DHT22;10484;48.736;9.332;2023-07-20T08:19:51;20.60;1.00
20650;DHT22;10484;48.736;9.332;2023-07-20T08:22:17;20.80;1.00
20650;DHT22;10484;48.736;9.332;2023-07-20T08:24:43;20.80;1.00
20650;DHT22;10484;48.736;9.332;2023-07-20T08:27:09;20.90;1.00
20650;DHT22;10484;48.736;9.332;2023-07-20T08:29:35;21.00;1.00
20650;DHT22;10484;48.736;9.332;2023-07-20T08:32:02;21.10;1.00
20650;DHT22;10484;48.736;9.332;2023-07-20T08:34:27;21.20;1.00
20650;DHT22;10484;48.736;9.332;2023-07-20T08:36:53;21.30;1.00
20650;DHT22;10484;48.736;9.332;2023-07-20T08:39:18;21.30;1.00
20650;DHT22;10484;48.736;9.332;2023-07-20T08:41:44;21.40;1.00
20650;DHT22;10484;48.736;9.332;2023-07-20T08:44:10;21.40;1.00
20650;DHT22;10484;48.736;9.332;2023-07-20T08:46:38;21.50;1.00
20650;DHT22;10484;48.736;9.332;2023-07-20T08:49:04;21.60;1.00
20650;DHT22;10484;48.736;9.332;2023-07-20T08:51:30;21.60;1.00
20650;DHT22;10484;48.736;9.332;2023-07-20T08:53:58;21.80;1.00
20650;DHT22;10484;48.736;9.332;2023-07-20T08:56:25;21.90;1.00
20650;DHT22;10484;48.736;9.332;2023-07-20T08:58:55;22.00;1.00
20650;DHT22;10484;48.736;9.332;2023-07-20T09:01:21;22.20;1.00
20650;DHT22;10484;48.736;9.332;2023-07-20T09:03:47;22.30;1.00
20650;DHT22;10484;48.736;9.332;2023-07-20T09:06:14;22.40;1.00
20650;DHT22;10484;48.736;9.332;2023-07-20T09:08:40;22.50;1.00
20650;DHT22;10484;48.736;9.332;2023-07-20T09:11:07;22.60;1.00
20650;DHT22;10484;48.736;9.332;2023-07-20T09:13:35;22.50;1.00
20650;DHT22;10484;48.736;9.332;2023-07-20T09:16:02;22.50;1.00
20650;DHT22;10484;48.736;9.332;2023-07-20T09:18:31;22.50;1.00
20650;DHT22;10484;48.736;9.332;2023-07-20T09:21:05;22.50;1.00
20650;DHT22;10484;48.736;9.332;2023-07-20T09:23:38;22.50;1.00
20650;DHT22;10484;48.736;9.332;2023-07-20T09:26:13;22.50;1.00
20650;DHT22;10484;48.736;9.332;2023-07-20T09:28:43;22.70;1.00
20650;DHT22;10484;48.736;9.332;2023-07-20T09:31:16;22.80;1.00
20650;DHT22;10484;48.736;9.332;2023-07-20T09:33:42;23.00;1.00
20650;DHT22;10484;48.736;9.332;2023-07-20T09:36:09;23.10;1.00
20650;DHT22;10484;48.736;9.332;2023-07-20T09:38:37;23.10;1.00
20650;DHT22;10484;48.736;9.332;2023-07-20T09:41:05;23.20;1.00
20650;DHT22;10484;48.736;9.332;2023-07-20T09:43:33;23.30;1.00
20650;DHT22;10484;48.736;9.332;2023-07-20T09:45:59;23.40;1.00
20650;DHT22;10484;48.736;9.332;2023-07-20T09:48:25;23.50;1.00
20650;DHT22;10484;48.736;9.332;2023-07-20T09:50:52;23.50;1.00
20650;DHT22;10484;48.736;9.332;2023-07-20T09:53:18;23.50;1.00
20650;DHT22;10484;48.736;9.332;2023-07-20T09:55:45;23.60;1.00
20650;DHT22;10484;48.736;9.332;2023-07-20T09:58:11;23.60;1.00
20650;DHT22;10484;48.736;9.332;2023-07-20T10:00:38;23.70;1.00
20650;DHT22;10484;48.736;9.332;2023-07-20T10:03:05;23.80;1.00
20650;DHT22;10484;48.736;9.332;2023-07-20T10:05:36;23.90;1.00
20650;DHT22;10484;48.736;9.332;2023-07-20T10:08:04;24.00;1.00
20650;DHT22;10484;48.736;9.332;2023-07-20T10:10:34;24.10;1.00
20650;DHT22;10484;48.736;9.332;2023-07-20T10:13:01;24.20;1.00
20650;DHT22;10484;48.736;9.332;2023-07-20T10:15:37;24.30;1.00
20650;DHT22;10484;48.736;9.332;2023-07-20T10:18:18;24.40;1.00
20650;DHT22;10484;48.736;9.332;2023-07-20T10:20:46;24.60;1.00
20650;DHT22;10484;48.736;9.332;2023-07-20T10:23:12;24.60;1.00
20650;DHT22;10484;48.736;9.332;2023-07-20T10:25:38;24.60;1.00
20650;DHT22;10484;48.736;9.332;2023-07-20T10:28:06;24.60;1.00
20650;DHT22;10484;48.736;9.332;2023-07-20T10:30:36;24.80;1.00
20650;DHT22;10484;48.736;9.332;2023-07-20T10:33:05;24.90;1.00
20650;DHT22;10484;48.736;9.332;2023-07-20T10:35:32;25.00;1.00
20650;DHT22;10484;48.736;9.332;2023-07-20T10:38:15;25.20;1.00
20650;DHT22;10484;48.736;9.332;2023-07-20T10:40:41;25.30;1.00
20650;DHT22;10484;48.736;9.332;2023-07-20T10:43:08;25.40;1.00
20650;DHT22;10484;48.736;9.332;2023-07-20T10:45:49;25.40;1.00
20650;DHT22;10484;48.736;9.332;2023-07-20T10:48:22;25.40;1.00
20650;DHT22;10484;48.736;9.332;2023-07-20T10:53:36;25.60;1.00
20650;DHT22;10484;48.736;9.332;2023-07-20T10:56:15;25.70;1.00
20650;DHT22;10484;48.736;9.332;2023-07-20T10:58:41;25.70;1.00
20650;DHT22;10484;48.736;9.332;2023-07-20T11:01:08;25.70;1.00
20650;DHT22;10484;48.736;9.332;2023-07-20T11:03:38;25.70;1.00
20650;DHT22;10484;48.736;9.332;2023-07-20T11:11:34;25.80;1.00
20650;DHT22;10484;48.736;9.332;2023-07-20T11:14:20;25.90;1.00
20650;DHT22;10484;48.736;9.332;2023-07-20T11:16:47;26.00;1.00
20650;DHT22;10484;48.736;9.332;2023-07-20T11:21:49;26.30;1.00
20650;DHT22;10484;48.736;9.332;2023-07-20T11:24:15;26.40;1.00
20650;DHT22;10484;48.736;9.332;2023-07-20T11:26:43;26.40;1.00
20650;DHT22;10484;48.736;9.332;2023-07-20T11:29:08;26.40;1.00
20650;DHT22;10484;48.736;9.332;2023-07-20T11:31:38;26.40;1.00
20650;DHT22;10484;48.736;9.332;2023-07-20T11:34:04;26.50;1.00
20650;DHT22;10484;48.736;9.332;2023-07-20T11:36:30;26.70;1.00
20650;DHT22;10484;48.736;9.332;2023-07-20T11:38:55;26.70;1.00
20650;DHT22;10484;48.736;9.332;2023-07-20T11:41:21;26.70;1.00
20650;DHT22;10484;48.736;9.332;2023-07-20T11:43:47;26.80;1.00
20650;DHT22;10484;48.736;9.332;2023-07-20T11:46:13;26.80;1.00
20650;DHT22;10484;48.736;9.332;2023-07-20T11:48:38;26.90;1.00
20650;DHT22;10484;48.736;9.332;2023-07-20T11:51:05;27.00;1.00
20650;DHT22;10484;48.736;9.332;2023-07-20T11:53:31;27.10;1.00
20650;DHT22;10484;48.736;9.332;2023-07-20T11:55:58;27.10;1.00
20650;DHT22;10484;48.736;9.332;2023-07-20T11:58:24;27.10;1.00
20650;DHT22;10484;48.736;9.332;2023-07-20T12:00:54;27.10;1.00
20650;DHT22;10484;48.736;9.332;2023-07-20T12:03:20;27.20;1.00
20650;DHT22;10484;48.736;9.332;2023-07-20T12:05:45;27.20;1.00
20650;DHT22;10484;48.736;9.332;2023-07-20T12:08:11;27.30;1.00
20650;DHT22;10484;48.736;9.332;2023-07-20T12:10:39;27.30;1.00
20650;DHT22;10484;48.736;9.332;2023-07-20T12:13:10;27.40;1.00
20650;DHT22;10484;48.736;9.332;2023-07-20T12:15:37;27.50;1.00
20650;DHT22;10484;48.736;9.332;2023-07-20T12:18:03;27.60;1.00
20650;DHT22;10484;48.736;9.332;2023-07-20T12:20:30;27.60;1.00
20650;DHT22;10484;48.736;9.332;2023-07-20T12:23:01;27.60;1.00
20650;DHT22;10484;48.736;9.332;2023-07-20T12:25:52;27.70;1.00
20650;DHT22;10484;48.736;9.332;2023-07-20T12:28:20;27.60;1.00
20650;DHT22;10484;48.736;9.332;2023-07-20T12:30:46;27.70;1.00
20650;DHT22;10484;48.736;9.332;2023-07-20T12:33:13;27.80;1.00
20650;DHT22;10484;48.736;9.332;2023-07-20T12:35:42;27.90;1.00
20650;DHT22;10484;48.736;9.332;2023-07-20T12:38:11;28.00;1.00
20650;DHT22;10484;48.736;9.332;2023-07-20T12:40:36;28.00;1.00
20650;DHT22;10484;48.736;9.332;2023-07-20T12:43:02;28.10;1.00
20650;DHT22;10484;48.736;9.332;2023-07-20T12:45:29;28.10;1.00
20650;DHT22;10484;48.736;9.332;2023-07-20T12:47:55;28.20;1.00
20650;DHT22;10484;48.736;9.332;2023-07-20T12:50:20;28.30;1.00
20650;DHT22;10484;48.736;9.332;2023-07-20T12:52:46;28.30;1.00
20650;DHT22;10484;48.736;9.332;2023-07-20T12:55:11;28.30;1.00
20650;DHT22;10484;48.736;9.332;2023-07-20T12:57:37;28.30;1.00
20650;DHT22;10484;48.736;9.332;2023-07-20T13:00:05;28.20;1.00
20650;DHT22;10484;48.736;9.332;2023-07-20T13:02:32;28.20;1.00
20650;DHT22;10484;48.736;9.332;2023-07-20T13:04:58;28.20;1.00
20650;DHT22;10484;48.736;9.332;2023-07-20T13:07:31;28.20;1.00
20650;DHT22;10484;48.736;9.332;2023-07-20T13:09:57;28.10;1.00
20650;DHT22;10484;48.736;9.332;2023-07-20T13:12:24;28.30;1.00
20650;DHT22;10484;48.736;9.332;2023-07-20T13:14:50;28.30;1.00
20650;DHT22;10484;48.736;9.332;2023-07-20T13:17:15;28.30;1.00
20650;DHT22;10484;48.736;9.332;2023-07-20T13:19:41;28.40;1.00
20650;DHT22;10484;48.736;9.332;2023-07-20T13:22:06;28.50;1.00
20650;DHT22;10484;48.736;9.332;2023-07-20T13:24:32;28.60;1.00
20650;DHT22;10484;48.736;9.332;2023-07-20T13:26:57;28.70;1.00
20650;DHT22;10484;48.736;9.332;2023-07-20T13:29:24;28.60;1.00
20650;DHT22;10484;48.736;9.332;2023-07-20T13:31:50;28.50;1.00
20650;DHT22;10484;48.736;9.332;2023-07-20T13:34:16;28.60;1.00
20650;DHT22;10484;48.736;9.332;2023-07-20T13:36:41;28.70;1.00
20650;DHT22;10484;48.736;9.332;2023-07-20T13:39:07;28.70;1.00
20650;DHT22;10484;48.736;9.332;2023-07-20T13:41:34;28.60;1.00
20650;DHT22;10484;48.736;9.332;2023-07-20T13:43:59;28.60;1.00
20650;DHT22;10484;48.736;9.332;2023-07-20T13:46:25;28.60;1.00
20650;DHT22;10484;48.736;9.332;2023-07-20T13:48:51;28.70;1.00
20650;DHT22;10484;48.736;9.332;2023-07-20T13:51:17;28.70;1.00
20650;DHT22;10484;48.736;9.332;2023-07-20T13:53:43;28.60;1.00
20650;DHT22;10484;48.736;9.332;2023-07-20T13:56:10;28.70;1.00
20650;DHT22;10484;48.736;9.332;2023-07-20T13:58:36;28.70;1.00
20650;DHT22;10484;48.736;9.332;2023-07-20T14:01:02;28.70;1.00
20650;DHT22;10484;48.736;9.332;2023-07-20T14:03:27;28.70;1.00
20650;DHT22;10484;48.736;9.332;2023-07-20T14:05:53;28.80;1.00
20650;DHT22;10484;48.736;9.332;2023-07-20T14:08:19;28.80;1.00
20650;DHT22;10484;48.736;9.332;2023-07-20T14:10:44;28.70;1.00
20650;DHT22;10484;48.736;9.332;2023-07-20T14:13:10;28.70;1.00
20650;DHT22;10484;48.736;9.332;2023-07-20T14:15:36;28.70;1.00
20650;DHT22;10484;48.736;9.332;2023-07-20T14:18:01;28.70;1.00
20650;DHT22;10484;48.736;9.332;2023-07-20T14:20:27;28.70;1.00
20650;DHT22;10484;48.736;9.332;2023-07-20T14:22:52;28.80;1.00
20650;DHT22;10484;48.736;9.332;2023-07-20T14:25:18;28.90;1.00
20650;DHT22;10484;48.736;9.332;2023-07-20T14:27:43;28.90;1.00
20650;DHT22;10484;48.736;9.332;2023-07-20T14:30:09;28.90;1.00
20650;DHT22;10484;48.736;9.332;2023-07-20T14:32:35;29.00;1.00
20650;DHT22;10484;48.736;9.332;2023-07-20T14:35:01;28.90;1.00
20650;DHT22;10484;48.736;9.332;2023-07-20T14:37:26;29.00;1.00
20650;DHT22;10484;48.736;9.332;2023-07-20T14:39:52;29.00;1.00
20650;DHT22;10484;48.736;9.332;2023-07-20T14:42:18;28.90;1.00
20650;DHT22;10484;48.736;9.332;2023-07-20T14:44:44;28.80;1.00
20650;DHT22;10484;48.736;9.332;2023-07-20T14:47:09;28.90;1.00
20650;DHT22;10484;48.736;9.332;2023-07-20T14:49:35;28.90;1.00
20650;DHT22;10484;48.736;9.332;2023-07-20T14:52:01;28.80;1.00
20650;DHT22;10484;48.736;9.332;2023-07-20T14:54:27;28.80;1.00
20650;DHT22;10484;48.736;9.332;2023-07-20T14:56:53;28.80;1.00
20650;DHT22;10484;48.736;9.332;2023-07-20T14:59:19;28.80;1.00
20650;DHT22;10484;48.736;9.332;2023-07-20T15:01:45;28.80;1.00
20650;DHT22;10484;48.736;9.332;2023-07-20T15:04:16;28.90;1.00
20650;DHT22;10484;48.736;9.332;2023-07-20T15:06:42;28.90;1.00
20650;DHT22;10484;48.736;9.332;2023-07-20T15:09:08;28.90;1.00
20650;DHT22;10484;48.736;9.332;2023-07-20T15:11:35;28.80;1.00
20650;DHT22;10484;48.736;9.332;2023-07-20T15:14:01;28.70;1.00
20650;DHT22;10484;48.736;9.332;2023-07-20T15:16:26;28.70;1.00
20650;DHT22;10484;48.736;9.332;2023-07-20T15:18:52;28.60;1.00
20650;DHT22;10484;48.736;9.332;2023-07-20T15:21:18;28.60;1.00
20650;DHT22;10484;48.736;9.332;2023-07-20T15:23:44;28.60;1.00
20650;DHT22;10484;48.736;9.332;2023-07-20T15:26:09;28.50;1.00
20650;DHT22;10484;48.736;9.332;2023-07-20T15:28:37;28.50;1.00
20650;DHT22;10484;48.736;9.332;2023-07-20T15:31:03;28.50;1.00
20650;DHT22;10484;48.736;9.332;2023-07-20T15:33:29;28.40;1.00
20650;DHT22;10484;48.736;9.332;2023-07-20T15:35:55;28.40;1.00
20650;DHT22;10484;48.736;9.332;2023-07-20T15:38:21;28.50;1.00
20650;DHT22;10484;48.736;9.332;2023-07-20T15:40:47;28.50;1.00
20650;DHT22;10484;48.736;9.332;2023-07-20T15:43:15;28.50;1.00
20650;DHT22;10484;48.736;9.332;2023-07-20T15:45:40;28.50;1.00
20650;DHT22;10484;48.736;9.332;2023-07-20T15:48:06;28.50;1.00
20650;DHT22;10484;48.736;9.332;2023-07-20T15:50:32;28.50;1.00
20650;DHT22;10484;48.736;9.332;2023-07-20T15:52:57;28.40;1.00
20650;DHT22;10484;48.736;9.332;2023-07-20T15:55:23;28.30;1.00
20650;DHT22;10484;48.736;9.332;2023-07-20T15:57:48;28.30;1.00
20650;DHT22;10484;48.736;9.332;2023-07-20T16:00:14;28.30;1.00
20650;DHT22;10484;48.736;9.332;2023-07-20T16:02:40;28.20;1.00
20650;DHT22;10484;48.736;9.332;2023-07-20T16:05:05;28.20;1.00